Time;durP1;ratioP1;P1;durP2;ratioP2;P2;SDS_P1;SDS_P2;PMS_P1;PMS_P2;Temp;Humidity;BMP_temperature;BMP_pressure;BME280_temperature;BME280_humidity;BME280_pressure;Samples;Min_cycle;Max_cycle;Signal;HPM_P1;HPM_P2
2022/05/01 00:01:15;;;;;;;10.07;3.47;;;;;;;7.15;100.00;101838.84;4986373;28;20105;-71
2022/05/01 00:03:42;;;;;;;12.90;3.30;;;;;;;7.08;100.00;101845.56;4966711;28;20477;-72
2022/05/01 00:06:09;;;;;;;9.25;4.13;;;;;;;7.03;100.00;101831.78;4968903;28;20117;-72
2022/05/01 00:08:36;;;;;;;8.02;3.78;;;;;;;6.91;100.00;101830.88;4986159;28;20030;-72
2022/05/01 00:11:02;;;;;;;5.70;4.13;;;;;;;6.90;100.00;101833.63;4968948;28;20484;-71
2022/05/01 00:13:27;;;;;;;11.15;4.28;;;;;;;6.79;100.00;101833.56;4986483;28;20026;-72
2022/05/01 00:15:53;;;;;;;7.93;3.72;;;;;;;6.75;100.00;101840.91;4986318;28;20092;-72
2022/05/01 00:18:19;;;;;;;6.22;3.78;;;;;;;6.63;100.00;101831.19;4968809;28;20113;-71
2022/05/01 00:20:46;;;;;;;8.88;3.45;;;;;;;6.61;100.00;101843.72;4955595;28;20523;-71
2022/05/01 00:23:13;;;;;;;8.57;4.03;;;;;;;6.54;100.00;101846.78;4985981;28;20109;-71
2022/05/01 00:25:42;;;;;;;;;;;;;;;6.54;100.00;101859.22;4986561;28;20457;-72
2022/05/01 00:28:12;;;;;;;6.97;4.18;;;;;;;6.62;100.00;101856.84;4985629;28;19910;-71
2022/05/01 00:30:39;;;;;;;8.07;4.88;;;;;;;6.57;100.00;101860.81;4968782;28;20037;-73
2022/05/01 00:38:34;;;;;;;14.63;4.10;;;;;;;6.40;100.00;101856.69;4967794;28;20038;-73
2022/05/01 00:41:00;;;;;;;5.72;3.80;;;;;;;6.30;100.00;101862.66;4968287;28;20022;-73
2022/05/01 00:43:25;;;;;;;7.10;3.53;;;;;;;6.19;100.00;101862.53;4965168;28;20046;-73
2022/05/01 00:45:51;;;;;;;7.78;4.00;;;;;;;6.04;100.00;101863.59;4983583;28;20034;-74
2022/05/01 00:48:16;;;;;;;10.23;5.68;;;;;;;5.89;100.00;101873.41;4968357;28;20101;-73
2022/05/01 00:50:43;;;;;;;7.67;3.60;;;;;;;5.87;100.00;101860.25;4971540;28;20573;-74
2022/05/01 00:53:09;;;;;;;;;;;;;;;5.79;100.00;101878.50;4968759;28;20045;-73
2022/05/01 00:55:38;;;;;;;12.85;4.50;;;;;;;5.76;100.00;101878.72;4968456;28;20286;-73
2022/05/01 00:58:07;;;;;;;12.15;4.25;;;;;;;5.78;100.00;101895.34;4983007;28;20045;-73
2022/05/01 01:00:34;;;;;;;10.13;4.40;;;;;;;5.71;100.00;101894.06;4985994;28;20038;-73
2022/05/01 01:03:00;;;;;;;7.22;4.28;;;;;;;5.64;100.00;101890.13;4968255;28;20037;-74
2022/05/01 01:05:26;;;;;;;10.48;4.07;;;;;;;5.52;100.00;101885.66;4985821;28;20415;-73
2022/05/01 01:07:52;;;;;;;11.30;5.63;;;;;;;5.42;100.00;101886.25;4972039;28;20042;-73
2022/05/01 01:10:18;;;;;;;14.45;5.70;;;;;;;5.41;100.00;101889.03;4971345;28;20026;-73
2022/05/01 01:12:53;;;;;;;12.88;5.65;;;;;;;5.38;100.00;101884.75;4969836;28;20042;-74
2022/05/01 01:15:20;;;;;;;8.73;4.20;;;;;;;5.37;100.00;101888.34;4972362;28;20034;-73
2022/05/01 01:17:47;;;;;;;12.90;5.38;;;;;;;5.33;100.00;101886.84;4989449;28;20041;-73
2022/05/01 01:20:12;;;;;;;8.40;3.63;;;;;;;5.35;100.00;101890.25;4971629;28;20048;-73
2022/05/01 01:22:44;;;;;;;8.80;4.28;;;;;;;5.26;100.00;101894.34;4971726;28;20026;-73
2022/05/01 01:25:11;;;;;;;9.93;4.55;;;;;;;5.21;100.00;101890.31;4971785;28;20134;-73
2022/05/01 01:27:41;;;;;;;10.90;4.65;;;;;;;5.06;100.00;101890.34;4971864;28;20380;-73
2022/05/01 01:32:52;;;;;;;6.97;4.10;;;;;;;4.98;100.00;101907.66;4989192;28;20042;-73
2022/05/01 01:35:23;;;;;;;14.05;5.38;;;;;;;5.00;100.00;101914.56;4972133;28;20033;-74
2022/05/01 01:37:53;;;;;;;8.45;4.47;;;;;;;4.94;100.00;101920.25;4971702;28;21022;-73
2022/05/01 01:40:25;;;;;;;11.48;4.40;;;;;;;4.78;100.00;101923.00;4989063;28;20040;-73
2022/05/01 01:42:54;;;;;;;10.57;4.72;;;;;;;4.81;100.00;101919.31;4971565;28;20044;-73
2022/05/01 01:45:20;;;;;;;9.55;5.00;;;;;;;4.76;100.00;101913.47;4989233;28;20524;-73
2022/05/01 01:47:49;;;;;;;14.05;4.55;;;;;;;4.81;100.00;101922.81;4989065;28;20038;-73
2022/05/01 01:50:16;;;;;;;9.70;4.57;;;;;;;4.76;100.00;101918.78;4988995;28;20109;-73
2022/05/01 01:52:49;;;;;;;10.88;4.88;;;;;;;4.72;100.00;101933.13;4969107;28;20657;-73
2022/05/01 01:55:18;;;;;;;12.50;4.18;;;;;;;4.65;100.00;101928.22;4971742;28;20034;-73
2022/05/01 01:57:55;;;;;;;10.50;4.80;;;;;;;4.54;100.00;101927.16;4971454;28;20026;-73
2022/05/01 02:00:20;;;;;;;7.25;4.22;;;;;;;4.53;100.00;101936.06;4968417;28;20077;-74
2022/05/01 02:02:45;;;;;;;12.13;5.30;;;;;;;4.51;100.00;101930.84;4988334;28;20475;-73
2022/05/01 02:05:11;;;;;;;8.77;4.43;;;;;;;4.48;100.00;101940.78;4971047;28;20109;-71
2022/05/01 02:07:36;;;;;;;12.37;4.67;;;;;;;4.52;100.00;101942.28;4970633;28;20089;-71
2022/05/01 02:10:03;;;;;;;12.48;4.72;;;;;;;4.52;100.00;101945.81;4971201;28;20038;-73
2022/05/01 02:12:29;;;;;;;16.15;5.00;;;;;;;4.47;100.00;101939.91;4976451;28;20101;-73
2022/05/01 02:14:55;;;;;;;11.02;4.80;;;;;;;4.48;100.00;101944.28;4988174;28;20141;-74
2022/05/01 02:17:20;;;;;;;10.83;4.57;;;;;;;4.52;100.00;101951.09;4970303;28;20120;-74
2022/05/01 02:19:46;;;;;;;16.42;5.63;;;;;;;4.50;100.00;101952.97;4988209;28;20034;-73
2022/05/01 02:22:14;;;;;;;13.13;5.03;;;;;;;4.50;100.00;101946.84;4987914;28;20626;-74
2022/05/01 02:24:40;;;;;;;11.77;5.65;;;;;;;4.46;100.00;101958.53;4970890;28;20034;-74
2022/05/01 02:27:06;;;;;;;15.10;4.63;;;;;;;4.48;100.00;101959.31;4968714;28;20488;-73
2022/05/01 02:29:31;;;;;;;10.10;5.03;;;;;;;4.42;100.00;101953.44;4970294;28;20137;-74
2022/05/01 02:31:56;;;;;;;9.33;5.00;;;;;;;4.47;100.00;101950.50;4987903;28;20038;-74
2022/05/01 02:34:23;;;;;;;16.03;5.27;;;;;;;4.52;100.00;101952.84;4970755;28;20064;-74
2022/05/01 02:36:51;;;;;;;11.93;4.70;;;;;;;4.42;100.00;101963.16;4970577;28;20570;-74
2022/05/01 02:39:20;;;;;;;12.10;5.32;;;;;;;4.39;100.00;101963.34;4970219;28;20042;-74
2022/05/01 02:41:46;;;;;;;15.20;6.22;;;;;;;4.42;100.00;101966.66;4970000;28;20026;-74
2022/05/01 02:44:11;;;;;;;15.55;6.55;;;;;;;4.45;100.00;101968.28;4970363;28;20087;-74
2022/05/01 02:46:37;;;;;;;19.63;6.60;;;;;;;4.48;100.00;101973.38;4987932;28;20510;-74
2022/05/01 02:49:06;;;;;;;11.52;5.50;;;;;;;4.46;100.00;101974.41;4987787;28;20215;-74
2022/05/01 02:51:32;;;;;;;16.50;5.47;;;;;;;4.44;100.00;101969.19;4987572;28;20041;-71
2022/05/01 02:54:04;;;;;;;10.75;4.72;;;;;;;4.48;100.00;101961.94;4954064;28;20120;-72
2022/05/01 02:56:33;;;;;;;15.65;4.90;;;;;;;4.40;100.00;101957.97;4967037;28;20106;-73
2022/05/01 02:59:00;;;;;;;11.77;5.50;;;;;;;4.46;100.00;101962.03;4969633;28;20471;-74
2022/05/01 03:01:25;;;;;;;;;;;;;;;4.50;100.00;101965.34;4960024;28;20034;-73
2022/05/01 03:03:50;;;;;;;15.02;5.70;;;;;;;4.52;100.00;101959.03;4968693;28;19965;-74
2022/05/01 03:06:16;;;;;;;11.00;4.97;;;;;;;4.58;100.00;101952.50;4969915;28;20462;-74
2022/05/01 03:08:41;;;;;;;10.70;5.10;;;;;;;4.64;100.00;101960.91;4959044;28;20105;-74
2022/05/01 03:11:06;;;;;;;19.37;5.77;;;;;;;4.81;100.00;101964.31;4969453;28;20042;-74
2022/05/01 03:13:32;;;;;;;10.37;5.57;;;;;;;4.86;100.00;101963.06;4987784;28;20057;-74
2022/05/01 03:15:57;;;;;;;19.73;5.67;;;;;;;4.84;100.00;101953.53;4975073;28;20041;-74
2022/05/01 03:23:51;;;;;;;16.63;5.72;;;;;;;4.97;100.00;101954.47;4986892;28;20038;-73
2022/05/01 03:26:18;;;;;;;18.60;5.80;;;;;;;4.98;100.00;101945.56;4987068;28;20203;-74
2022/05/01 03:28:44;;;;;;;11.75;5.88;;;;;;;5.02;100.00;101941.78;4972305;28;20475;-71
2022/05/01 03:31:10;;;;;;;;;;;;;;;5.01;100.00;101948.03;4963855;28;20113;-71
2022/05/01 03:33:36;;;;;;;11.65;5.50;;;;;;;4.97;100.00;101937.75;4986945;28;20008;-71
2022/05/01 03:36:05;;;;;;;;;;;;;;;5.09;100.00;101952.84;4969702;28;20050;-71
2022/05/01 03:38:30;;;;;;;16.63;6.72;;;;;;;5.12;100.00;101943.84;4969016;28;20176;-71
2022/05/01 03:40:55;;;;;;;14.03;6.20;;;;;;;5.04;100.00;101933.75;4986648;28;20121;-71
2022/05/01 03:43:21;;;;;;;13.20;5.83;;;;;;;5.12;100.00;101946.50;4986608;28;20076;-71
2022/05/01 03:45:46;;;;;;;15.40;5.53;;;;;;;5.10;100.00;101940.44;4986645;28;20551;-71
2022/05/01 03:48:11;;;;;;;14.20;6.33;;;;;;;5.22;100.00;101940.53;4952046;28;20046;-71
2022/05/01 03:50:38;;;;;;;15.20;6.17;;;;;;;5.24;100.00;101946.56;4986222;28;20053;-72
2022/05/01 03:53:04;;;;;;;14.65;6.20;;;;;;;5.24;100.00;101943.94;4950548;28;20050;-74
2022/05/01 03:55:33;;;;;;;13.52;5.70;;;;;;;5.24;100.00;101940.41;4986385;28;20462;-74
2022/05/01 03:57:59;;;;;;;13.48;6.18;;;;;;;5.30;100.00;101942.66;4968006;28;20030;-74
2022/05/01 04:00:24;;;;;;;16.02;6.00;;;;;;;5.25;100.00;101936.81;4969644;28;20033;-73
2022/05/01 04:02:52;;;;;;;17.17;7.87;;;;;;;5.31;100.00;101936.41;4985229;28;20053;-74
2022/05/01 04:05:17;;;;;;;18.77;6.18;;;;;;;5.42;100.00;101941.88;4969307;28;20100;-71
2022/05/01 04:07:43;;;;;;;14.90;5.93;;;;;;;5.55;100.00;101941.94;4956620;28;20038;-71
2022/05/01 04:10:09;;;;;;;14.95;6.32;;;;;;;5.55;100.00;101949.00;4969370;28;20040;-71
2022/05/01 04:12:39;;;;;;;13.80;5.68;;;;;;;5.57;100.00;101947.13;4986541;28;20139;-74
2022/05/01 04:15:09;;;;;;;20.38;7.30;;;;;;;5.54;100.00;101947.31;4969453;28;20034;-74
2022/05/01 04:17:41;;;;;;;14.73;5.95;;;;;;;5.65;100.00;101947.47;4965877;28;20038;-75
2022/05/01 04:20:13;;;;;;;15.80;6.13;;;;;;;5.67;100.00;101949.06;4979173;28;20630;-74
2022/05/01 04:22:46;;;;;;;11.88;6.55;;;;;;;5.65;100.00;101944.81;4966255;28;20050;-74
2022/05/01 04:25:16;;;;;;;14.45;7.43;;;;;;;5.60;100.00;101950.44;4969074;28;20061;-73
2022/05/01 04:27:48;;;;;;;13.18;5.72;;;;;;;5.66;100.00;101947.34;4968875;28;20041;-71
2022/05/01 04:30:15;;;;;;;11.00;5.60;;;;;;;5.69;100.00;101941.03;4986222;28;20053;-73
2022/05/01 04:32:55;;;;;;;16.33;6.95;;;;;;;5.71;100.00;101945.28;4968595;28;20434;-71
2022/05/01 04:35:31;;;;;;;12.32;5.22;;;;;;;5.84;100.00;101940.00;4968841;28;20048;-74
2022/05/01 04:38:05;;;;;;;17.48;5.95;;;;;;;5.86;100.00;101939.91;4985974;28;20034;-74
2022/05/01 04:40:38;;;;;;;12.05;5.43;;;;;;;5.98;100.00;101936.44;4986401;28;20049;-74
2022/05/01 04:43:12;;;;;;;10.35;5.47;;;;;;;6.05;100.00;101935.06;4986137;28;20038;-74
2022/05/01 04:45:40;;;;;;;13.27;5.72;;;;;;;6.13;100.00;101924.81;4986153;28;20137;-74
2022/05/01 04:48:07;;;;;;;13.73;5.47;;;;;;;6.26;100.00;101923.97;4985871;28;20100;-74
2022/05/01 04:50:33;;;;;;;14.90;6.32;;;;;;;6.39;100.00;101918.66;4955674;28;20026;-71
2022/05/01 04:53:02;;;;;;;12.25;5.60;;;;;;;6.53;100.00;101923.84;4985667;28;20397;-72
2022/05/01 04:55:28;;;;;;;12.38;5.70;;;;;;;6.69;100.00;101915.66;4981599;28;20507;-71
2022/05/01 04:57:55;;;;;;;9.52;5.32;;;;;;;6.83;100.00;101917.31;4951880;28;20391;-71
2022/05/01 05:00:20;;;;;;;7.07;4.97;;;;;;;7.02;100.00;101915.03;4985204;28;20039;-71
2022/05/01 05:02:48;;;;;;;7.63;5.07;;;;;;;7.07;100.00;101898.78;4968471;28;20038;-72
2022/05/01 05:05:14;;;;;;;16.17;4.57;;;;;;;7.32;100.00;101903.16;4967757;28;20038;-72
2022/05/01 05:07:40;;;;;;;15.00;6.20;;;;;;;7.89;100.00;101901.53;4985858;28;20026;-71
2022/05/01 05:10:07;;;;;;;15.05;6.03;;;;;;;7.66;100.00;101885.53;4985882;28;20443;-71
2022/05/01 05:12:34;;;;;;;16.30;4.85;;;;;;;7.90;100.00;101872.19;4985111;28;20488;-72
2022/05/01 05:15:00;;;;;;;8.52;4.68;;;;;;;8.15;100.00;101857.00;4968675;28;20031;-72
2022/05/01 05:17:27;;;;;;;9.80;4.43;;;;;;;8.34;100.00;101859.91;4968332;28;20501;-71
2022/05/01 05:19:54;;;;;;;7.82;3.78;;;;;;;8.65;100.00;101836.22;4955593;28;20038;-72
2022/05/01 05:22:19;;;;;;;;;;;;;;;9.12;100.00;101836.81;4968751;28;20022;-72
2022/05/01 05:24:44;;;;;;;;;;;;;;;9.69;100.00;101814.28;4986213;28;19960;-72
2022/05/01 05:27:10;;;;;;;11.63;4.77;;;;;;;9.54;100.00;101778.25;4985664;28;19956;-72
2022/05/01 05:29:36;;;;;;;9.93;4.53;;;;;;;9.43;100.00;101772.97;4956553;28;20039;-71
2022/05/01 05:32:02;;;;;;;8.35;4.38;;;;;;;9.01;100.00;101759.59;4968079;28;20030;-72
2022/05/01 05:34:27;;;;;;;13.33;4.63;;;;;;;8.33;100.00;101762.41;4981359;28;20046;-72
2022/05/01 05:36:52;;;;;;;12.77;4.90;;;;;;;7.91;100.00;101806.56;4968238;28;20273;-71
2022/05/01 05:39:18;;;;;;;13.38;5.80;;;;;;;7.89;100.00;101849.25;4985091;28;20041;-72
2022/05/01 05:41:44;;;;;;;7.65;4.28;;;;;;;7.72;100.00;101858.47;4949317;28;20027;-71
2022/05/01 05:44:10;;;;;;;11.27;4.70;;;;;;;7.73;100.00;101875.31;4984284;28;20089;-71
2022/05/01 05:46:35;;;;;;;10.55;5.00;;;;;;;7.77;100.00;101892.69;4968077;28;20502;-72
2022/05/01 05:49:01;;;;;;;13.37;5.57;;;;;;;7.71;100.00;101886.03;4967398;28;20034;-71
2022/05/01 05:51:26;;;;;;;13.37;4.83;;;;;;;7.70;100.00;101899.44;4984048;28;20991;-72
2022/05/01 05:53:53;;;;;;;11.60;6.03;;;;;;;7.56;100.00;101911.97;4971105;28;20041;-71
2022/05/01 05:56:19;;;;;;;13.95;5.15;;;;;;;7.72;100.00;101908.16;4971362;28;20474;-72
2022/05/01 05:58:44;;;;;;;11.20;4.50;;;;;;;7.84;100.00;101915.19;4979336;28;20377;-72
2022/05/01 06:01:10;;;;;;;12.80;4.93;;;;;;;7.97;100.00;101915.97;4955118;28;20026;-72
2022/05/01 06:03:37;;;;;;;13.60;4.85;;;;;;;7.94;100.00;101913.56;4988791;28;20038;-71
2022/05/01 06:06:02;;;;;;;;;;;;;;;7.98;100.00;101896.41;4970947;28;20054;-71
2022/05/01 06:08:28;;;;;;;;;;;;;;;7.79;100.00;101917.34;4960588;28;19952;-72
2022/05/01 06:10:53;;;;;;;11.00;4.43;;;;;;;7.97;100.00;101923.94;4970925;28;20367;-72
2022/05/01 06:13:18;;;;;;;17.03;4.43;;;;;;;7.99;100.00;101923.84;4988438;28;20034;-72
2022/05/01 06:15:44;;;;;;;10.23;5.20;;;;;;;8.14;100.00;101927.13;4971110;28;20483;-72
2022/05/01 06:18:10;;;;;;;9.43;4.63;;;;;;;8.15;100.00;101919.03;4954585;28;20092;-72
2022/05/01 06:20:36;;;;;;;;;;;;;;;8.08;100.00;101916.94;4971583;28;20036;-72
2022/05/01 06:23:01;;;;;;;;;;;;;;;8.20;100.00;101913.38;4988679;28;19913;-72
2022/05/01 06:25:26;;;;;;;11.00;4.60;;;;;;;8.29;100.00;101909.13;4988587;28;19973;-72
2022/05/01 06:27:52;;;;;;;12.97;6.40;;;;;;;8.35;100.00;101896.19;4970776;28;20057;-72
2022/05/01 06:30:17;;;;;;;8.70;5.23;;;;;;;8.20;100.00;101890.25;4970688;28;20534;-72
2022/05/01 06:32:44;;;;;;;11.40;4.50;;;;;;;8.35;100.00;101892.69;4970501;28;20121;-71
2022/05/01 06:35:10;;;;;;;12.95;4.20;;;;;;;8.45;100.00;101888.34;4954663;28;20113;-71
2022/05/01 06:37:37;;;;;;;15.65;4.43;;;;;;;8.48;100.00;101892.63;4987990;28;20046;-71
2022/05/01 06:40:03;;;;;;;10.05;4.78;;;;;;;8.55;100.00;101883.19;4988012;28;20029;-72
2022/05/01 06:42:29;;;;;;;;;;;;;;;8.49;100.00;101873.00;4970906;28;20036;-72
2022/05/01 06:44:54;;;;;;;;;;;;;;;8.72;100.00;101865.84;4971022;28;20004;-72
2022/05/01 06:47:20;;;;;;;10.20;3.87;;;;;;;8.84;100.00;101857.72;4988033;28;20596;-72
2022/05/01 06:49:45;;;;;;;11.53;5.27;;;;;;;8.85;100.00;101838.13;4986610;28;20112;-72
2022/05/01 06:52:10;;;;;;;5.93;3.70;;;;;;;8.95;100.00;101835.56;4987794;28;20034;-72
2022/05/01 06:54:36;;;;;;;12.10;3.27;;;;;;;9.26;100.00;101841.84;4987963;28;20138;-72
2022/05/01 06:57:01;;;;;;;7.50;3.70;;;;;;;9.27;100.00;101822.25;4970688;28;20081;-72
2022/05/01 06:59:26;;;;;;;7.93;3.40;;;;;;;9.35;100.00;101821.59;4987365;28;20030;-71
2022/05/01 07:01:52;;;;;;;8.20;4.50;;;;;;;9.38;100.00;101799.16;4953808;28;20038;-73
2022/05/01 07:04:17;;;;;;;7.67;4.00;;;;;;;9.43;100.00;101794.28;4968902;28;20100;-72
2022/05/01 07:06:43;;;;;;;11.00;4.40;;;;;;;9.50;100.00;101795.47;4970285;28;20396;-71
2022/05/01 07:09:09;;;;;;;8.30;3.80;;;;;;;9.52;100.00;101797.03;4968428;28;20027;-72
2022/05/01 07:11:34;;;;;;;6.15;3.45;;;;;;;9.30;100.00;101806.00;4954030;28;20034;-72
2022/05/01 07:14:00;;;;;;;6.77;2.97;;;;;;;9.39;100.00;101809.72;4983603;28;20022;-72
2022/05/01 07:16:25;;;;;;;9.93;3.87;;;;;;;9.45;100.00;101805.66;4987506;28;20707;-72
2022/05/01 07:18:51;;;;;;;6.20;4.17;;;;;;;9.46;100.00;101810.88;4986007;28;20038;-72
2022/05/01 07:21:16;;;;;;;6.70;3.67;;;;;;;9.47;100.00;101779.72;4969071;28;20049;-72
2022/05/01 07:23:41;;;;;;;7.17;3.20;;;;;;;9.44;100.00;101788.84;4987428;28;20698;-72
2022/05/01 07:26:08;;;;;;;6.38;3.30;;;;;;;9.58;100.00;101787.69;4971651;28;20583;-72
2022/05/01 07:28:34;;;;;;;8.70;3.23;;;;;;;9.62;100.00;101791.78;4987074;28;20038;-72
2022/05/01 07:31:01;;;;;;;5.05;2.40;;;;;;;9.65;100.00;101754.19;4969469;28;20026;-72
2022/05/01 07:33:26;;;;;;;7.30;2.70;;;;;;;9.95;100.00;101773.84;4953589;28;20058;-72
2022/05/01 07:35:51;;;;;;;6.13;3.23;;;;;;;10.18;100.00;101760.31;4969774;28;20069;-72
2022/05/01 07:38:17;;;;;;;5.77;3.20;;;;;;;10.35;98.30;101746.34;4987025;28;20030;-72
2022/05/01 07:40:43;;;;;;;9.63;3.67;;;;;;;10.15;96.82;101722.22;4977191;28;20088;-72
2022/05/01 07:43:10;;;;;;;4.85;3.45;;;;;;;10.38;95.01;101716.72;4987024;28;20552;-72
2022/05/01 07:45:35;;;;;;;8.75;4.13;;;;;;;10.55;92.79;101705.34;4969576;28;20045;-72
2022/05/01 07:48:01;;;;;;;4.50;3.65;;;;;;;10.51;91.25;101697.75;4986976;28;20026;-72
2022/05/01 07:50:27;;;;;;;9.27;2.90;;;;;;;10.99;91.75;101742.34;4987231;28;20065;-72
2022/05/01 07:52:52;;;;;;;12.63;3.40;;;;;;;11.05;87.17;101666.09;4986823;28;20747;-72
2022/05/01 07:55:18;;;;;;;5.80;3.20;;;;;;;10.88;84.78;101623.09;4969624;28;20044;-72
2022/05/01 07:57:43;;;;;;;5.93;3.53;;;;;;;11.01;85.44;101664.72;4986643;28;20038;-72
2022/05/01 08:00:09;;;;;;;5.63;3.43;;;;;;;10.60;85.21;101626.66;4968959;28;20034;-72
2022/05/01 08:05:23;;;;;;;7.75;3.92;;;;;;;11.22;87.12;101732.22;4986170;28;20054;-72
2022/05/01 08:07:49;;;;;;;7.50;4.28;;;;;;;11.47;85.32;101713.84;4967666;28;20113;-72
2022/05/01 08:10:14;;;;;;;5.03;3.08;;;;;;;11.53;82.60;101651.78;4968718;28;20039;-72
2022/05/01 08:12:40;;;;;;;5.70;3.33;;;;;;;11.66;80.80;101638.91;4968784;28;20537;-72
2022/05/01 08:15:06;;;;;;;4.87;3.33;;;;;;;11.57;79.39;101597.84;4986007;28;20041;-72
2022/05/01 08:17:33;;;;;;;4.03;2.58;;;;;;;11.54;74.69;101498.34;4968905;28;20023;-72
2022/05/01 08:22:43;;;;;;;7.63;3.17;;;;;;;11.56;71.70;101457.06;4966479;28;20060;-73
2022/05/01 08:25:08;;;;;;;7.13;2.67;;;;;;;11.68;70.47;101455.03;4968834;28;20476;-73
2022/05/01 08:27:33;;;;;;;2.90;1.90;;;;;;;11.68;70.27;101447.00;4985992;28;20105;-73
2022/05/01 08:29:59;;;;;;;6.13;2.30;;;;;;;11.54;69.60;101442.19;4968097;28;20029;-72
2022/05/01 08:32:26;;;;;;;3.67;2.13;;;;;;;11.53;70.02;101473.44;4985889;28;20042;-72
2022/05/01 08:34:52;;;;;;;4.28;2.25;;;;;;;11.92;71.66;101574.03;4986314;28;20935;-73
2022/05/01 08:37:18;;;;;;;4.72;2.70;;;;;;;11.76;69.29;101489.88;4952581;28;20088;-72
2022/05/01 08:39:43;;;;;;;5.00;2.50;;;;;;;11.68;68.90;101486.28;4966272;28;20644;-72
2022/05/01 08:42:09;;;;;;;5.13;2.47;;;;;;;11.54;67.49;101423.47;4968415;28;20408;-72
2022/05/01 08:44:36;;;;;;;5.37;2.87;;;;;;;11.38;69.71;101510.56;4984695;28;20085;-72
2022/05/01 08:47:06;;;;;;;5.00;2.28;;;;;;;11.55;69.98;101545.50;4973130;28;20096;-72
2022/05/01 08:49:33;;;;;;;6.68;2.80;;;;;;;11.49;68.66;101490.75;4985583;28;20411;-73
2022/05/01 08:52:01;;;;;;;5.13;2.35;;;;;;;11.70;67.72;101501.19;4968006;28;20028;-72
2022/05/01 08:54:30;;;;;;;6.65;2.47;;;;;;;11.88;68.24;101545.91;4984166;28;20089;-72
2022/05/01 08:56:56;;;;;;;3.38;2.50;;;;;;;11.88;68.08;101543.22;4985163;28;20041;-73
2022/05/01 08:59:23;;;;;;;4.35;1.70;;;;;;;12.35;68.77;101620.63;4969817;28;20034;-72
2022/05/01 09:01:52;;;;;;;2.60;1.70;;;;;;;12.66;66.03;101543.38;4967892;28;20484;-72
2022/05/01 09:04:17;;;;;;;1.83;1.38;;;;;;;13.03;63.32;101500.22;4967543;28;20038;-72
2022/05/01 09:06:45;;;;;;;1.67;1.07;;;;;;;13.10;59.63;101380.63;4985501;28;20113;-73
2022/05/01 09:09:16;;;;;;;0.80;0.80;;;;;;;13.39;61.49;101521.53;4953271;28;20049;-73
2022/05/01 09:14:27;;;;;;;1.70;0.93;;;;;;;14.63;53.96;101313.75;4963756;28;20030;-73
2022/05/01 09:17:13;;;;;;;3.35;1.33;;;;;;;14.86;50.80;101227.78;4985802;28;20034;-73
2022/05/01 09:19:39;;;;;;;1.70;1.10;;;;;;;15.06;51.22;101290.00;4964765;28;20125;-73
2022/05/01 09:22:04;;;;;;;4.03;1.20;;;;;;;15.39;50.15;101279.81;4984791;28;20484;-73
2022/05/01 09:24:30;;;;;;;1.93;0.90;;;;;;;16.14;49.15;101315.81;4957949;28;20054;-74
2022/05/01 09:26:57;;;;;;;3.30;0.95;;;;;;;16.30;47.87;101313.97;4985865;28;20434;-73
2022/05/01 09:29:25;;;;;;;1.65;1.13;;;;;;;16.20;48.66;101315.06;4989288;28;20034;-73
2022/05/01 09:31:51;;;;;;;2.00;1.80;;;;;;;15.86;48.63;101250.16;4989247;28;20444;-73
2022/05/01 09:34:21;;;;;;;3.70;1.43;;;;;;;16.34;49.50;101382.59;4971410;28;20148;-74
2022/05/01 09:36:47;;;;;;;2.03;1.20;;;;;;;16.95;49.72;101480.38;4972027;28;21066;-73
2022/05/01 09:39:25;;;;;;;2.08;1.10;;;;;;;17.90;46.91;101390.25;4971707;28;20085;-74
2022/05/01 09:41:52;;;;;;;2.25;1.20;;;;;;;18.37;45.76;101387.91;4971796;28;20337;-74
2022/05/01 09:44:20;;;;;;;1.48;1.10;;;;;;;18.04;44.62;101260.69;4989341;28;20030;-73
2022/05/01 09:46:47;;;;;;;2.53;1.30;;;;;;;17.84;45.85;101298.38;4974768;28;20039;-74
2022/05/01 09:49:14;;;;;;;1.65;1.38;;;;;;;16.99;46.20;101171.44;4971465;28;20076;-74
2022/05/01 09:51:43;;;;;;;9.93;4.80;;;;;;;17.20;48.22;101405.31;4955353;28;20080;-74
2022/05/01 09:54:10;;;;;;;8.68;4.97;;;;;;;17.76;47.84;101449.75;4989158;28;20093;-74
2022/05/01 09:56:47;;;;;;;4.45;2.17;;;;;;;18.16;45.61;101360.94;4988891;28;20056;-74
2022/05/01 09:59:14;;;;;;;2.33;1.35;;;;;;;18.50;44.46;101317.69;4952815;28;20049;-74
2022/05/01 10:01:40;;;;;;;3.85;1.30;;;;;;;19.00;44.51;101362.66;4987743;28;20387;-74
2022/05/01 10:04:06;;;;;;;4.68;1.90;;;;;;;19.20;43.44;101328.38;4970459;28;20049;-74
2022/05/01 10:06:32;;;;;;;5.15;1.40;;;;;;;18.34;43.58;101202.63;4970810;28;20037;-74
2022/05/01 10:08:59;;;;;;;3.25;1.50;;;;;;;18.21;43.97;101190.94;4987869;28;20030;-74
2022/05/01 10:11:26;;;;;;;;;;;;;;;18.38;44.00;101240.91;4988043;28;20026;-74
2022/05/01 10:13:51;;;;;;;1.55;1.42;;;;;;;18.57;43.72;101252.84;4987732;28;19914;-74
2022/05/01 10:16:17;;;;;;;3.03;1.70;;;;;;;18.20;43.64;101173.91;4954123;28;20038;-74
2022/05/01 10:18:44;;;;;;;3.15;1.92;;;;;;;18.26;44.88;101294.72;4969958;28;20116;-75
2022/05/01 10:21:11;;;;;;;3.53;1.70;;;;;;;18.19;44.53;101217.31;4953891;28;20023;-74
2022/05/01 10:23:37;;;;;;;2.15;1.80;;;;;;;17.39;44.81;101106.16;4987536;28;20908;-74
2022/05/01 10:26:13;;;;;;;2.97;1.70;;;;;;;17.57;45.78;101235.22;4987557;28;20015;-74
2022/05/01 10:29:01;;;;;;;2.60;1.88;;;;;;;18.61;44.85;101351.41;4969119;28;20042;-75
2022/05/01 10:34:46;;;;;;;3.60;2.33;;;;;;;17.87;44.34;101181.84;4984416;28;20038;-74
2022/05/01 10:37:49;;;;;;;3.67;1.80;;;;;;;17.98;44.18;101211.00;4987515;28;20069;-75
2022/05/01 10:40:15;;;;;;;7.57;1.50;;;;;;;18.31;43.63;101213.03;4968816;28;20447;-74
2022/05/01 10:42:49;;;;;;;2.58;1.42;;;;;;;17.60;45.69;101240.22;4967021;28;20023;-74
2022/05/01 10:45:21;;;;;;;2.30;1.50;;;;;;;18.62;44.62;101341.47;4987348;28;20031;-74
2022/05/01 10:47:48;;;;;;;4.93;1.88;;;;;;;17.80;44.73;101216.06;4987214;28;20038;-75
2022/05/01 10:50:20;;;;;;;3.92;1.40;;;;;;;18.66;43.08;101243.50;4969782;28;20029;-74
2022/05/01 10:53:07;;;;;;;7.82;2.60;;;;;;;19.15;42.06;101220.72;4986898;28;20026;-74
2022/05/01 10:55:52;;;;;;;5.20;2.45;;;;;;;18.11;41.97;101032.72;4986796;28;20030;-74
2022/05/01 10:58:25;;;;;;;1.77;1.35;;;;;;;18.13;43.31;101152.25;4933745;28;1040248;-74
2022/05/01 11:00:52;;;;;;;2.17;1.70;;;;;;;19.47;41.52;101263.41;4987432;28;20053;-74
2022/05/01 11:03:28;;;;;;;3.13;1.77;;;;;;;19.14;40.39;101096.44;4987715;28;20085;-74
2022/05/01 11:06:08;;;;;;;3.70;1.80;;;;;;;19.56;40.88;101202.56;4970497;28;20066;-74
2022/05/01 11:08:36;;;;;;;6.63;1.77;;;;;;;18.89;39.88;100986.16;4984213;28;20038;-75
2022/05/01 11:11:05;;;;;;;2.53;1.80;;;;;;;18.45;40.96;100993.06;4987625;28;20019;-74
2022/05/01 11:13:31;;;;;;;2.75;1.60;;;;;;;17.85;41.77;100984.88;4988129;28;20041;-76
2022/05/01 11:15:57;;;;;;;;;;;;;;;18.48;40.90;101071.03;4956199;28;20092;-73
2022/05/01 11:18:29;;;;;;;;;;;;;;;18.42;40.94;101019.66;4988202;28;19917;-74
2022/05/01 11:21:15;;;;;;;1.52;1.05;;;;;;;18.29;41.63;101061.03;4972936;28;19929;-76
2022/05/01 11:23:43;;;;;;;3.78;1.67;;;;;;;18.03;40.50;100930.28;4969045;28;20085;-76
2022/05/01 11:26:13;;;;;;;1.30;1.08;;;;;;;18.77;41.31;101169.88;4989899;28;20095;-77
2022/05/01 11:28:47;;;;;;;1.33;1.08;;;;;;;18.28;42.14;101100.72;4990107;28;20042;-76
2022/05/01 11:31:38;;;;;;;1.40;1.10;;;;;;;18.65;39.44;100984.09;4973714;28;20040;-76
2022/05/01 11:34:16;;;;;;;2.47;1.10;;;;;;;18.78;42.26;101200.50;4991543;28;20038;-75
2022/05/01 11:36:57;;;;;;;3.40;1.10;;;;;;;18.67;40.77;101095.59;4990754;28;20850;-73
2022/05/01 11:39:44;;;;;;;0.82;0.70;;;;;;;19.56;39.98;101175.50;4973506;28;20049;-75
2022/05/01 11:42:35;;;;;;;3.13;1.10;;;;;;;19.75;39.55;101157.56;4974211;28;20511;-75
2022/05/01 11:45:04;;;;;;;3.60;1.02;;;;;;;19.43;39.72;101084.28;4957164;28;20034;-76
2022/05/01 11:47:33;;;;;;;1.27;0.80;;;;;;;18.61;41.13;101031.50;4982329;28;20539;-75
2022/05/01 11:49:59;;;;;;;2.00;0.88;;;;;;;17.82;42.37;100973.69;4987856;28;20435;-76
2022/05/01 11:52:25;;;;;;;1.37;1.03;;;;;;;17.33;42.08;100877.59;4972342;28;20034;-75